SAS925 EKCH-KIAD
Flight info
| Callsign | SAS925 |
|---|---|
| Flight time | N/A |
| Altitude | 36000 |
| Route | ODN DCT PETIL DCT SURAT DCT ZOFAT DCT MOLAK DCT NEBIN/M084F380 NATA TUDEP/N0486F380 N522E ALLEX/N0490F400 DCT KAYCC DCT KYLOH DCT BAF HYPER9 |
| Aircraft | A359/H-SABDE1E2E3FGHIJ2J3J4J5M1P2RWXY/LB2D1 |
Departure
| Time | 2026-04-22 12:07 |
|---|---|
| Airport | Copenhagen Kastrup Airport (EKCH) |
Arrival
| Time | N/A |
|---|---|
| Airport | Washington Dulles International Airport (KIAD) |
| Time | Latitude | Longitude | Altitude | Speed | Heading |
|---|---|---|---|---|---|
| 2026-04-22 11:31 | 55.62504 | 12.65042 | 23 ft | 0 kts | 268° |
| 2026-04-22 11:45 | 55.62504 | 12.65049 | 24 ft | 4 kts | 268° |
| 2026-04-22 11:45 | 55.62504 | 12.65051 | 24 ft | 0 kts | 268° |
| 2026-04-22 11:45 | 55.62504 | 12.65052 | 23 ft | 0 kts | 268° |
| 2026-04-22 11:54 | 55.62505 | 12.65081 | 25 ft | 4 kts | 268° |
| 2026-04-22 11:54 | 55.62506 | 12.65129 | 27 ft | 4 kts | 268° |
| 2026-04-22 11:55 | 55.62508 | 12.65172 | 27 ft | 4 kts | 235° |
| 2026-04-22 11:55 | 55.62527 | 12.65196 | 28 ft | 4 kts | 187° |
| 2026-04-22 11:55 | 55.62537 | 12.65197 | 27 ft | 1 kts | 178° |
| 2026-04-22 11:55 | 55.62521 | 12.65198 | 29 ft | 0 kts | 179° |
| 2026-04-22 11:58 | 55.62520 | 12.65198 | 23 ft | 2 kts | 179° |
| 2026-04-22 11:58 | 55.62472 | 12.65200 | 23 ft | 10 kts | 178° |
| 2026-04-22 11:59 | 55.62401 | 12.65203 | 25 ft | 11 kts | 179° |
| 2026-04-22 11:59 | 55.62319 | 12.65203 | 24 ft | 12 kts | 182° |
| 2026-04-22 11:59 | 55.62230 | 12.65191 | 27 ft | 13 kts | 192° |
| 2026-04-22 11:59 | 55.62147 | 12.65112 | 27 ft | 14 kts | 213° |
| 2026-04-22 12:00 | 55.62063 | 12.65014 | 28 ft | 15 kts | 213° |
| 2026-04-22 12:00 | 55.61972 | 12.64909 | 26 ft | 17 kts | 213° |
| 2026-04-22 12:00 | 55.61903 | 12.64829 | 26 ft | 5 kts | 213° |
| 2026-04-22 12:00 | 55.61873 | 12.64794 | 27 ft | 6 kts | 210° |
| 2026-04-22 12:01 | 55.61830 | 12.64747 | 27 ft | 9 kts | 213° |
| 2026-04-22 12:01 | 55.61770 | 12.64677 | 27 ft | 5 kts | 213° |
| 2026-04-22 12:01 | 55.61766 | 12.64672 | 27 ft | 0 kts | 213° |
| 2026-04-22 12:03 | 55.61741 | 12.64643 | 26 ft | 12 kts | 213° |
| 2026-04-22 12:03 | 55.61633 | 12.64519 | 27 ft | 21 kts | 213° |
| 2026-04-22 12:03 | 55.61507 | 12.64374 | 26 ft | 22 kts | 213° |
| 2026-04-22 12:03 | 55.61383 | 12.64231 | 28 ft | 21 kts | 213° |
| 2026-04-22 12:04 | 55.61258 | 12.64086 | 27 ft | 22 kts | 213° |
| 2026-04-22 12:04 | 55.61130 | 12.63940 | 28 ft | 22 kts | 213° |
| 2026-04-22 12:04 | 55.60997 | 12.63788 | 28 ft | 23 kts | 213° |
| 2026-04-22 12:04 | 55.60873 | 12.63646 | 24 ft | 21 kts | 213° |
| 2026-04-22 12:05 | 55.60751 | 12.63505 | 28 ft | 21 kts | 213° |
| 2026-04-22 12:05 | 55.60629 | 12.63354 | 26 ft | 22 kts | 219° |
| 2026-04-22 12:05 | 55.60538 | 12.63216 | 27 ft | 14 kts | 221° |
| 2026-04-22 12:05 | 55.60455 | 12.63121 | 27 ft | 14 kts | 189° |
| 2026-04-22 12:06 | 55.60376 | 12.63206 | 29 ft | 14 kts | 131° |
| 2026-04-22 12:06 | 55.60350 | 12.63352 | 28 ft | 13 kts | 68° |
| 2026-04-22 12:06 | 55.60426 | 12.63485 | 28 ft | 23 kts | 40° |
| 2026-04-22 12:06 | 55.60688 | 12.63888 | 29 ft | 81 kts | 41° |
| 2026-04-22 12:07 | 55.61260 | 12.64776 | 28 ft | 135 kts | 40° |
| 2026-04-22 12:07 | 55.62079 | 12.66076 | 154 ft | 168 kts | 40° |
| 2026-04-22 12:07 | 55.62888 | 12.67422 | 829 ft | 155 kts | 38° |
| 2026-04-22 12:07 | 55.63683 | 12.68666 | 1464 ft | 151 kts | 36° |
| 2026-04-22 12:08 | 55.64547 | 12.69865 | 1778 ft | 163 kts | 33° |
| 2026-04-22 12:08 | 55.65589 | 12.70691 | 2061 ft | 171 kts | 8° |
| 2026-04-22 12:08 | 55.66828 | 12.70629 | 2298 ft | 189 kts | 350° |
| 2026-04-22 12:08 | 55.68191 | 12.70165 | 2516 ft | 211 kts | 352° |
| 2026-04-22 12:09 | 55.69713 | 12.69945 | 2862 ft | 228 kts | 359° |
| 2026-04-22 12:09 | 55.71330 | 12.69959 | 3394 ft | 234 kts | 359° |
| 2026-04-22 12:09 | 55.72957 | 12.69766 | 4069 ft | 234 kts | 355° |
| 2026-04-22 12:09 | 55.74556 | 12.69471 | 4754 ft | 234 kts | 354° |
| 2026-04-22 12:10 | 55.76207 | 12.69284 | 5376 ft | 239 kts | 356° |
| 2026-04-22 12:10 | 55.77890 | 12.69183 | 5990 ft | 242 kts | 358° |
| 2026-04-22 12:10 | 55.79567 | 12.69042 | 6631 ft | 245 kts | 356° |
| 2026-04-22 12:10 | 55.81287 | 12.68797 | 7214 ft | 250 kts | 353° |
| 2026-04-22 12:11 | 55.82890 | 12.67546 | 7789 ft | 259 kts | 320° |
| 2026-04-22 12:11 | 55.83850 | 12.64828 | 8430 ft | 269 kts | 292° |
| 2026-04-22 12:11 | 55.84406 | 12.61608 | 9103 ft | 273 kts | 290° |
| 2026-04-22 12:11 | 55.84973 | 12.58390 | 9775 ft | 276 kts | 292° |
| 2026-04-22 12:12 | 55.85608 | 12.55128 | 10422 ft | 281 kts | 294° |
| 2026-04-22 12:12 | 55.86303 | 12.51780 | 10775 ft | 296 kts | 294° |
| 2026-04-22 12:12 | 55.87060 | 12.48260 | 11076 ft | 313 kts | 295° |
| 2026-04-22 12:12 | 55.87869 | 12.44553 | 11377 ft | 329 kts | 295° |
| 2026-04-22 12:13 | 55.88678 | 12.40640 | 11700 ft | 345 kts | 290° |
| 2026-04-22 12:13 | 55.89154 | 12.36363 | 12181 ft | 357 kts | 278° |
| 2026-04-22 12:13 | 55.89068 | 12.31926 | 12746 ft | 368 kts | 264° |
| 2026-04-22 12:13 | 55.88343 | 12.27451 | 13322 ft | 377 kts | 249° |
| 2026-04-22 12:14 | 55.87159 | 12.23295 | 13928 ft | 383 kts | 243° |
| 2026-04-22 12:14 | 55.85841 | 12.19097 | 14488 ft | 387 kts | 242° |
| 2026-04-22 12:14 | 55.84516 | 12.14888 | 15037 ft | 391 kts | 242° |
| 2026-04-22 12:14 | 55.83193 | 12.10664 | 15588 ft | 394 kts | 242° |
| 2026-04-22 12:15 | 55.81864 | 12.06411 | 16133 ft | 398 kts | 242° |
| 2026-04-22 12:15 | 55.80507 | 12.02061 | 16700 ft | 401 kts | 242° |
| 2026-04-22 12:15 | 55.79155 | 11.97729 | 17239 ft | 405 kts | 242° |
| 2026-04-22 12:15 | 55.77793 | 11.93370 | 17809 ft | 408 kts | 242° |
| 2026-04-22 12:16 | 55.76401 | 11.88921 | 18388 ft | 412 kts | 242° |
| 2026-04-22 12:16 | 55.75003 | 11.84463 | 18913 ft | 415 kts | 242° |
| 2026-04-22 12:16 | 55.73581 | 11.79933 | 19420 ft | 419 kts | 242° |
| 2026-04-22 12:16 | 55.72164 | 11.75428 | 19929 ft | 423 kts | 242° |
| 2026-04-22 12:17 | 55.70713 | 11.70824 | 20440 ft | 427 kts | 242° |
| 2026-04-22 12:17 | 55.69276 | 11.66271 | 20976 ft | 429 kts | 242° |
| 2026-04-22 12:17 | 55.67800 | 11.61606 | 21472 ft | 432 kts | 241° |
| 2026-04-22 12:17 | 55.66332 | 11.56973 | 21979 ft | 436 kts | 241° |
| 2026-04-22 12:18 | 55.64847 | 11.52297 | 22484 ft | 439 kts | 241° |
| 2026-04-22 12:18 | 55.63340 | 11.47560 | 22975 ft | 442 kts | 241° |
| 2026-04-22 12:18 | 55.61896 | 11.42717 | 23455 ft | 445 kts | 246° |
| 2026-04-22 12:18 | 55.60866 | 11.37607 | 23929 ft | 446 kts | 257° |
| 2026-04-22 12:19 | 55.60372 | 11.32160 | 24322 ft | 447 kts | 267° |
| 2026-04-22 12:19 | 55.60174 | 11.26675 | 24679 ft | 451 kts | 269° |
| 2026-04-22 12:19 | 55.60013 | 11.21111 | 25025 ft | 455 kts | 269° |
| 2026-04-22 12:19 | 55.59842 | 11.15457 | 25356 ft | 460 kts | 269° |
| 2026-04-22 12:20 | 55.59713 | 11.09842 | 25692 ft | 463 kts | 273° |
| 2026-04-22 12:20 | 55.59930 | 11.04116 | 26063 ft | 464 kts | 278° |
| 2026-04-22 12:20 | 55.60290 | 10.98463 | 26416 ft | 467 kts | 280° |
| 2026-04-22 12:20 | 55.60723 | 10.92724 | 26768 ft | 471 kts | 281° |
| 2026-04-22 12:21 | 55.61190 | 10.86981 | 27119 ft | 474 kts | 281° |
| 2026-04-22 12:21 | 55.61670 | 10.81195 | 27464 ft | 478 kts | 281° |
| 2026-04-22 12:21 | 55.62155 | 10.75313 | 27796 ft | 482 kts | 281° |
| 2026-04-22 12:21 | 55.62631 | 10.69443 | 28134 ft | 486 kts | 281° |
| 2026-04-22 12:22 | 55.63102 | 10.63529 | 28456 ft | 489 kts | 280° |
| 2026-04-22 12:22 | 55.63576 | 10.57482 | 28773 ft | 493 kts | 280° |
| 2026-04-22 12:22 | 55.64041 | 10.51469 | 29095 ft | 497 kts | 280° |
| 2026-04-22 12:22 | 55.64507 | 10.45405 | 29409 ft | 500 kts | 280° |
| 2026-04-22 12:23 | 55.64970 | 10.39326 | 29709 ft | 504 kts | 280° |
| 2026-04-22 12:23 | 55.65440 | 10.33120 | 30000 ft | 507 kts | 280° |
| 2026-04-22 12:23 | 55.65905 | 10.26930 | 30306 ft | 510 kts | 280° |
| 2026-04-22 12:23 | 55.66368 | 10.20729 | 30562 ft | 513 kts | 279° |
| 2026-04-22 12:24 | 55.66680 | 10.16542 | 30725 ft | 515 kts | 279° |
| 2026-04-22 12:24 | 55.67151 | 10.10165 | 30939 ft | 518 kts | 279° |
| 2026-04-22 12:24 | 55.67614 | 10.03851 | 31182 ft | 521 kts | 279° |
| 2026-04-22 12:24 | 55.68076 | 9.97496 | 31416 ft | 523 kts | 279° |
| 2026-04-22 12:25 | 55.68542 | 9.91050 | 31654 ft | 526 kts | 279° |
| 2026-04-22 12:25 | 55.69002 | 9.84644 | 31861 ft | 528 kts | 279° |
| 2026-04-22 12:25 | 55.69466 | 9.78121 | 32086 ft | 531 kts | 279° |
| 2026-04-22 12:25 | 55.69922 | 9.71673 | 32306 ft | 533 kts | 279° |
| 2026-04-22 12:26 | 55.70382 | 9.65114 | 32505 ft | 535 kts | 279° |
| 2026-04-22 12:26 | 55.70838 | 9.58559 | 32699 ft | 538 kts | 279° |
| 2026-04-22 12:26 | 55.71291 | 9.51995 | 32972 ft | 537 kts | 279° |
| 2026-04-22 12:26 | 55.71736 | 9.45474 | 33403 ft | 534 kts | 279° |
| 2026-04-22 12:27 | 55.72187 | 9.38841 | 33646 ft | 535 kts | 279° |
| 2026-04-22 12:27 | 55.72625 | 9.32338 | 33898 ft | 537 kts | 278° |
| 2026-04-22 12:27 | 55.73063 | 9.25784 | 34135 ft | 537 kts | 278° |
| 2026-04-22 12:27 | 55.73502 | 9.19157 | 34382 ft | 537 kts | 278° |
| 2026-04-22 12:28 | 55.73933 | 9.12597 | 34589 ft | 537 kts | 278° |
| 2026-04-22 12:28 | 55.74361 | 9.06017 | 34842 ft | 536 kts | 278° |
| 2026-04-22 12:28 | 55.74781 | 8.99522 | 35102 ft | 534 kts | 278° |
| 2026-04-22 12:28 | 55.75201 | 8.92950 | 35429 ft | 530 kts | 278° |
| 2026-04-22 12:29 | 55.75609 | 8.86523 | 35710 ft | 528 kts | 278° |
| 2026-04-22 12:29 | 55.76021 | 8.79984 | 35954 ft | 527 kts | 278° |
| 2026-04-22 12:29 | 55.76422 | 8.73569 | 36152 ft | 526 kts | 278° |
| 2026-04-22 12:29 | 55.76824 | 8.67075 | 36346 ft | 526 kts | 278° |
| 2026-04-22 12:30 | 55.78010 | 8.47615 | 36395 ft | 533 kts | 278° |
| 2026-04-22 12:31 | 55.78787 | 8.34551 | 36393 ft | 531 kts | 277° |
| 2026-04-22 12:31 | 55.79547 | 8.21517 | 36401 ft | 530 kts | 277° |
| 2026-04-22 12:32 | 55.80298 | 8.08424 | 36404 ft | 530 kts | 277° |
| 2026-04-22 12:32 | 55.81391 | 7.88898 | 36399 ft | 531 kts | 277° |
| 2026-04-22 12:33 | 55.82103 | 7.75872 | 36405 ft | 528 kts | 277° |
| 2026-04-22 12:33 | 55.82795 | 7.62950 | 36409 ft | 528 kts | 277° |
| 2026-04-22 12:34 | 55.83480 | 7.49893 | 36409 ft | 528 kts | 277° |
| 2026-04-22 12:34 | 55.84149 | 7.36882 | 36414 ft | 528 kts | 277° |
| 2026-04-22 12:35 | 55.84802 | 7.23914 | 36412 ft | 527 kts | 276° |
| 2026-04-22 12:35 | 55.85443 | 7.10899 | 36413 ft | 526 kts | 276° |
| 2026-04-22 12:36 | 55.86066 | 6.97979 | 36418 ft | 526 kts | 276° |
| 2026-04-22 12:36 | 55.86678 | 6.84990 | 36420 ft | 526 kts | 276° |
| 2026-04-22 12:37 | 55.87275 | 6.72039 | 36421 ft | 526 kts | 276° |
| 2026-04-22 12:37 | 55.87859 | 6.59067 | 36425 ft | 524 kts | 276° |
| 2026-04-22 12:38 | 55.88429 | 6.46095 | 36429 ft | 524 kts | 275° |
| 2026-04-22 12:38 | 55.88984 | 6.33154 | 36427 ft | 524 kts | 275° |
| 2026-04-22 12:39 | 55.89791 | 6.13731 | 36434 ft | 523 kts | 275° |
| 2026-04-22 12:40 | 55.90310 | 6.00820 | 36440 ft | 522 kts | 275° |
| 2026-04-22 12:40 | 55.90813 | 5.87997 | 36437 ft | 522 kts | 275° |
| 2026-04-22 12:41 | 55.91305 | 5.75080 | 36445 ft | 522 kts | 275° |
| 2026-04-22 12:41 | 55.91784 | 5.62183 | 36443 ft | 521 kts | 274° |
| 2026-04-22 12:42 | 55.92247 | 5.49315 | 36448 ft | 519 kts | 274° |
| 2026-04-22 12:42 | 55.92696 | 5.36468 | 36450 ft | 518 kts | 274° |
| 2026-04-22 12:43 | 55.93132 | 5.23627 | 36458 ft | 519 kts | 274° |
| 2026-04-22 12:43 | 55.93479 | 5.13090 | 36462 ft | 519 kts | 274° |